sensor_id;sensor_type;location;lat;lon;timestamp;temperature;humidity
40528;DHT22;26230;51.268;6.534;2024-01-16T00:00:00;2.5;100
40528;DHT22;26230;51.268;6.534;2024-01-16T00:10:00;2.6;100
40528;DHT22;26230;51.268;6.534;2024-01-16T00:20:00;2.5;100
40528;DHT22;26230;51.268;6.534;2024-01-16T00:30:02;2.6;100
40528;DHT22;26230;51.268;6.534;2024-01-16T00:40:00;2.6;100
40528;DHT22;26230;51.268;6.534;2024-01-16T00:50:00;2.6;100
40528;DHT22;26230;51.268;6.534;2024-01-16T01:00:00;2.7;100
40528;DHT22;26230;51.268;6.534;2024-01-16T01:10:00;2.6;100
40528;DHT22;26230;51.268;6.534;2024-01-16T01:20:00;2.6;100
40528;DHT22;26230;51.268;6.534;2024-01-16T01:30:00;2.6;100
40528;DHT22;26230;51.268;6.534;2024-01-16T01:40:00;2.6;100
40528;DHT22;26230;51.268;6.534;2024-01-16T01:50:01;2.6;100
40528;DHT22;26230;51.268;6.534;2024-01-16T02:00:00;2.5;100
40528;DHT22;26230;51.268;6.534;2024-01-16T02:10:00;2.6;100
40528;DHT22;26230;51.268;6.534;2024-01-16T02:20:00;2.5;100
40528;DHT22;26230;51.268;6.534;2024-01-16T02:30:00;2.6;100
40528;DHT22;26230;51.268;6.534;2024-01-16T02:40:00;2.6;100
40528;DHT22;26230;51.268;6.534;2024-01-16T02:50:00;2.5;100
40528;DHT22;26230;51.268;6.534;2024-01-16T03:00:00;2.5;100
40528;DHT22;26230;51.268;6.534;2024-01-16T03:10:00;2.5;100
40528;DHT22;26230;51.268;6.534;2024-01-16T03:20:00;2.3;100
40528;DHT22;26230;51.268;6.534;2024-01-16T03:30:01;2.3;100
40528;DHT22;26230;51.268;6.534;2024-01-16T03:40:02;2.4;100
40528;DHT22;26230;51.268;6.534;2024-01-16T03:50:00;2.3;100
40528;DHT22;26230;51.268;6.534;2024-01-16T04:00:01;2.3;100
40528;DHT22;26230;51.268;6.534;2024-01-16T04:10:00;2.3;100
40528;DHT22;26230;51.268;6.534;2024-01-16T04:20:00;2.3;100
40528;DHT22;26230;51.268;6.534;2024-01-16T04:30:00;2.3;100
40528;DHT22;26230;51.268;6.534;2024-01-16T04:40:00;2.3;100
40528;DHT22;26230;51.268;6.534;2024-01-16T04:50:00;2.2;100
40528;DHT22;26230;51.268;6.534;2024-01-16T05:00:00;2.2;100
40528;DHT22;26230;51.268;6.534;2024-01-16T05:10:01;2.3;100
40528;DHT22;26230;51.268;6.534;2024-01-16T05:20:01;2.2;100
40528;DHT22;26230;51.268;6.534;2024-01-16T05:30:00;2.1;100
40528;DHT22;26230;51.268;6.534;2024-01-16T05:40:01;2.1;100
40528;DHT22;26230;51.268;6.534;2024-01-16T05:50:00;2.0;100
40528;DHT22;26230;51.268;6.534;2024-01-16T06:00:00;1.9;100
40528;DHT22;26230;51.268;6.534;2024-01-16T06:10:01;1.9;100
40528;DHT22;26230;51.268;6.534;2024-01-16T06:20:00;1.8;100
40528;DHT22;26230;51.268;6.534;2024-01-16T06:30:00;1.7;100
40528;DHT22;26230;51.268;6.534;2024-01-16T06:40:00;1.6;100
40528;DHT22;26230;51.268;6.534;2024-01-16T06:50:00;1.5;100
40528;DHT22;26230;51.268;6.534;2024-01-16T07:00:02;1.5;100
40528;DHT22;26230;51.268;6.534;2024-01-16T07:10:02;1.4;100
40528;DHT22;26230;51.268;6.534;2024-01-16T07:20:00;1.3;100
40528;DHT22;26230;51.268;6.534;2024-01-16T07:30:00;1.3;100
40528;DHT22;26230;51.268;6.534;2024-01-16T07:40:00;1.3;100
40528;DHT22;26230;51.268;6.534;2024-01-16T07:50:00;1.2;100
40528;DHT22;26230;51.268;6.534;2024-01-16T08:00:00;1.3;100
40528;DHT22;26230;51.268;6.534;2024-01-16T08:10:00;1.3;100
40528;DHT22;26230;51.268;6.534;2024-01-16T08:20:00;1.3;100
40528;DHT22;26230;51.268;6.534;2024-01-16T08:30:02;1.4;100
40528;DHT22;26230;51.268;6.534;2024-01-16T08:40:00;1.4;100
40528;DHT22;26230;51.268;6.534;2024-01-16T08:50:01;1.5;100
40528;DHT22;26230;51.268;6.534;2024-01-16T09:00:00;1.5;100
40528;DHT22;26230;51.268;6.534;2024-01-16T09:10:00;1.5;100
40528;DHT22;26230;51.268;6.534;2024-01-16T09:20:02;1.5;100
40528;DHT22;26230;51.268;6.534;2024-01-16T09:30:00;1.5;100
40528;DHT22;26230;51.268;6.534;2024-01-16T09:40:00;1.6;100
40528;DHT22;26230;51.268;6.534;2024-01-16T09:50:01;1.6;100
40528;DHT22;26230;51.268;6.534;2024-01-16T10:00:00;1.7;100
40528;DHT22;26230;51.268;6.534;2024-01-16T10:10:00;1.8;100
40528;DHT22;26230;51.268;6.534;2024-01-16T10:20:00;1.9;100
40528;DHT22;26230;51.268;6.534;2024-01-16T10:30:00;1.7;100
40528;DHT22;26230;51.268;6.534;2024-01-16T10:40:00;1.9;100
40528;DHT22;26230;51.268;6.534;2024-01-16T10:50:00;1.9;100
40528;DHT22;26230;51.268;6.534;2024-01-16T11:00:03;1.9;100
40528;DHT22;26230;51.268;6.534;2024-01-16T11:10:00;2.0;100
40528;DHT22;26230;51.268;6.534;2024-01-16T11:20:00;2.4;100
40528;DHT22;26230;51.268;6.534;2024-01-16T11:30:00;2.7;100
40528;DHT22;26230;51.268;6.534;2024-01-16T11:50:08;2.8;100
40528;DHT22;26230;51.268;6.534;2024-01-16T12:00:02;3.1;100
40528;DHT22;26230;51.268;6.534;2024-01-16T12:10:00;3.3;100
40528;DHT22;26230;51.268;6.534;2024-01-16T12:20:00;3.4;100
40528;DHT22;26230;51.268;6.534;2024-01-16T12:30:08;3.5;100
40528;DHT22;26230;51.268;6.534;2024-01-16T12:40:00;3.6;100
40528;DHT22;26230;51.268;6.534;2024-01-16T12:50:02;3.7;100
40528;DHT22;26230;51.268;6.534;2024-01-16T13:00:00;3.7;99
40528;DHT22;26230;51.268;6.534;2024-01-16T13:10:08;4.0;99
40528;DHT22;26230;51.268;6.534;2024-01-16T13:20:01;3.9;98
40528;DHT22;26230;51.268;6.534;2024-01-16T13:30:00;3.9;98
40528;DHT22;26230;51.268;6.534;2024-01-16T13:40:00;4.1;98
40528;DHT22;26230;51.268;6.534;2024-01-16T13:50:00;4.1;96
40528;DHT22;26230;51.268;6.534;2024-01-16T14:00:00;3.9;96
40528;DHT22;26230;51.268;6.534;2024-01-16T14:10:00;4.1;96
40528;DHT22;26230;51.268;6.534;2024-01-16T14:20:00;4.0;95
40528;DHT22;26230;51.268;6.534;2024-01-16T14:30:01;3.9;95
40528;DHT22;26230;51.268;6.534;2024-01-16T14:40:00;3.9;94
40528;DHT22;26230;51.268;6.534;2024-01-16T14:50:00;3.8;94
40528;DHT22;26230;51.268;6.534;2024-01-16T15:00:00;4.0;94
40528;DHT22;26230;51.268;6.534;2024-01-16T15:10:02;3.7;94
40528;DHT22;26230;51.268;6.534;2024-01-16T15:20:00;3.6;94
40528;DHT22;26230;51.268;6.534;2024-01-16T15:30:00;3.4;95
40528;DHT22;26230;51.268;6.534;2024-01-16T15:40:00;3.4;95
40528;DHT22;26230;51.268;6.534;2024-01-16T15:50:00;3.3;96
40528;DHT22;26230;51.268;6.534;2024-01-16T16:00:02;3.0;96
40528;DHT22;26230;51.268;6.534;2024-01-16T16:10:00;2.9;96
40528;DHT22;26230;51.268;6.534;2024-01-16T16:20:00;2.7;96
40528;DHT22;26230;51.268;6.534;2024-01-16T16:30:00;2.6;97
40528;DHT22;26230;51.268;6.534;2024-01-16T16:40:00;2.5;97
40528;DHT22;26230;51.268;6.534;2024-01-16T16:50:02;2.4;97
40528;DHT22;26230;51.268;6.534;2024-01-16T17:00:00;2.4;97
40528;DHT22;26230;51.268;6.534;2024-01-16T17:10:00;2.4;98
40528;DHT22;26230;51.268;6.534;2024-01-16T17:20:02;2.4;98
40528;DHT22;26230;51.268;6.534;2024-01-16T17:30:00;2.2;98
40528;DHT22;26230;51.268;6.534;2024-01-16T17:40:01;2.2;98
40528;DHT22;26230;51.268;6.534;2024-01-16T17:50:00;2.2;98
40528;DHT22;26230;51.268;6.534;2024-01-16T18:00:00;2.0;99
40528;DHT22;26230;51.268;6.534;2024-01-16T18:10:00;2.2;99
40528;DHT22;26230;51.268;6.534;2024-01-16T18:20:00;2.1;99
40528;DHT22;26230;51.268;6.534;2024-01-16T18:30:02;2.0;99
40528;DHT22;26230;51.268;6.534;2024-01-16T18:40:00;1.8;99
40528;DHT22;26230;51.268;6.534;2024-01-16T18:50:00;1.6;100
40528;DHT22;26230;51.268;6.534;2024-01-16T19:00:00;1.4;100
40528;DHT22;26230;51.268;6.534;2024-01-16T19:10:00;1.4;100
40528;DHT22;26230;51.268;6.534;2024-01-16T19:20:00;1.3;100
40528;DHT22;26230;51.268;6.534;2024-01-16T19:30:00;1.3;100
40528;DHT22;26230;51.268;6.534;2024-01-16T19:40:00;1.4;100
40528;DHT22;26230;51.268;6.534;2024-01-16T19:50:01;1.3;100
40528;DHT22;26230;51.268;6.534;2024-01-16T20:00:00;1.3;100
40528;DHT22;26230;51.268;6.534;2024-01-16T20:10:00;1.2;100
40528;DHT22;26230;51.268;6.534;2024-01-16T20:20:00;1.4;100
40528;DHT22;26230;51.268;6.534;2024-01-16T20:30:00;1.3;100
40528;DHT22;26230;51.268;6.534;2024-01-16T20:40:00;1.2;100
40528;DHT22;26230;51.268;6.534;2024-01-16T20:50:00;1.2;100
40528;DHT22;26230;51.268;6.534;2024-01-16T21:00:02;1.0;100
40528;DHT22;26230;51.268;6.534;2024-01-16T21:10:00;1.0;100
40528;DHT22;26230;51.268;6.534;2024-01-16T21:20:02;1.1;100
40528;DHT22;26230;51.268;6.534;2024-01-16T21:30:00;1.0;100
40528;DHT22;26230;51.268;6.534;2024-01-16T21:40:00;0.9;100
40528;DHT22;26230;51.268;6.534;2024-01-16T21:50:00;1.1;100
40528;DHT22;26230;51.268;6.534;2024-01-16T22:00:00;0.9;100
40528;DHT22;26230;51.268;6.534;2024-01-16T22:10:00;1.0;100
40528;DHT22;26230;51.268;6.534;2024-01-16T22:20:00;1.2;100
40528;DHT22;26230;51.268;6.534;2024-01-16T22:30:00;1.2;100
40528;DHT22;26230;51.268;6.534;2024-01-16T22:40:00;1.1;100
40528;DHT22;26230;51.268;6.534;2024-01-16T22:50:03;1.0;100
40528;DHT22;26230;51.268;6.534;2024-01-16T23:00:00;0.9;100
40528;DHT22;26230;51.268;6.534;2024-01-16T23:10:02;0.8;100
40528;DHT22;26230;51.268;6.534;2024-01-16T23:20:00;0.8;100
40528;DHT22;26230;51.268;6.534;2024-01-16T23:30:00;0.5;100
40528;DHT22;26230;51.268;6.534;2024-01-16T23:40:02;0.4;100
40528;DHT22;26230;51.268;6.534;2024-01-16T23:50:00;0.5;100
